sensor_id;sensor_type;location;lat;lon;timestamp;temperature;humidity
3100;DHT22;1560;52.746;13.474;2023-05-19T00:02:22;9.10;99.90
3100;DHT22;1560;52.746;13.474;2023-05-19T00:04:53;9.00;99.90
3100;DHT22;1560;52.746;13.474;2023-05-19T00:07:24;9.10;99.90
3100;DHT22;1560;52.746;13.474;2023-05-19T00:09:55;9.10;99.90
3100;DHT22;1560;52.746;13.474;2023-05-19T00:12:25;9.10;99.90
3100;DHT22;1560;52.746;13.474;2023-05-19T00:14:55;9.00;99.90
3100;DHT22;1560;52.746;13.474;2023-05-19T00:17:25;9.00;99.90
3100;DHT22;1560;52.746;13.474;2023-05-19T00:19:56;9.10;99.90
3100;DHT22;1560;52.746;13.474;2023-05-19T00:22:25;9.10;99.90
3100;DHT22;1560;52.746;13.474;2023-05-19T00:24:54;9.10;99.90
3100;DHT22;1560;52.746;13.474;2023-05-19T00:30:02;8.90;99.90
3100;DHT22;1560;52.746;13.474;2023-05-19T00:32:31;8.90;99.90
3100;DHT22;1560;52.746;13.474;2023-05-19T00:35:01;8.80;99.90
3100;DHT22;1560;52.746;13.474;2023-05-19T00:40:19;8.50;99.90
3100;DHT22;1560;52.746;13.474;2023-05-19T00:42:48;8.50;99.90
3100;DHT22;1560;52.746;13.474;2023-05-19T00:45:17;8.50;99.90
3100;DHT22;1560;52.746;13.474;2023-05-19T00:47:47;8.60;99.90
3100;DHT22;1560;52.746;13.474;2023-05-19T00:50:16;8.60;99.90
3100;DHT22;1560;52.746;13.474;2023-05-19T00:52:45;8.60;99.90
3100;DHT22;1560;52.746;13.474;2023-05-19T00:55:14;8.60;99.90
3100;DHT22;1560;52.746;13.474;2023-05-19T00:57:44;8.60;99.90
3100;DHT22;1560;52.746;13.474;2023-05-19T01:02:52;8.60;99.90
3100;DHT22;1560;52.746;13.474;2023-05-19T01:05:22;8.50;99.90
3100;DHT22;1560;52.746;13.474;2023-05-19T01:07:55;8.50;99.90
3100;DHT22;1560;52.746;13.474;2023-05-19T01:10:24;8.40;99.90
3100;DHT22;1560;52.746;13.474;2023-05-19T01:18:09;8.40;99.90
3100;DHT22;1560;52.746;13.474;2023-05-19T01:23:33;8.40;99.90
3100;DHT22;1560;52.746;13.474;2023-05-19T01:26:29;8.40;99.90
3100;DHT22;1560;52.746;13.474;2023-05-19T01:29:26;8.40;99.90
3100;DHT22;1560;52.746;13.474;2023-05-19T01:31:58;8.40;99.90
3100;DHT22;1560;52.746;13.474;2023-05-19T01:34:28;8.40;99.90
3100;DHT22;1560;52.746;13.474;2023-05-19T01:37:00;8.50;99.90
3100;DHT22;1560;52.746;13.474;2023-05-19T01:39:29;8.50;99.90
3100;DHT22;1560;52.746;13.474;2023-05-19T01:41:59;8.40;99.90
3100;DHT22;1560;52.746;13.474;2023-05-19T01:47:09;8.30;99.90
3100;DHT22;1560;52.746;13.474;2023-05-19T01:49:38;8.40;99.90
3100;DHT22;1560;52.746;13.474;2023-05-19T01:52:07;8.30;99.90
3100;DHT22;1560;52.746;13.474;2023-05-19T01:54:36;8.30;99.90
3100;DHT22;1560;52.746;13.474;2023-05-19T01:57:09;8.40;99.90
3100;DHT22;1560;52.746;13.474;2023-05-19T01:59:46;8.30;99.90
3100;DHT22;1560;52.746;13.474;2023-05-19T02:02:19;8.20;99.90
3100;DHT22;1560;52.746;13.474;2023-05-19T02:07:34;8.20;99.90
3100;DHT22;1560;52.746;13.474;2023-05-19T02:10:10;8.30;99.90
3100;DHT22;1560;52.746;13.474;2023-05-19T02:12:38;8.30;99.90
3100;DHT22;1560;52.746;13.474;2023-05-19T02:17:50;8.20;99.90
3100;DHT22;1560;52.746;13.474;2023-05-19T02:20:21;8.20;99.90
3100;DHT22;1560;52.746;13.474;2023-05-19T02:25:29;8.10;99.90
3100;DHT22;1560;52.746;13.474;2023-05-19T02:27:58;8.10;99.90
3100;DHT22;1560;52.746;13.474;2023-05-19T02:30:29;8.10;99.90
3100;DHT22;1560;52.746;13.474;2023-05-19T02:32:58;8.10;99.90
3100;DHT22;1560;52.746;13.474;2023-05-19T02:38:07;8.00;99.90
3100;DHT22;1560;52.746;13.474;2023-05-19T02:43:14;8.10;99.90
3100;DHT22;1560;52.746;13.474;2023-05-19T02:45:46;8.10;99.90
3100;DHT22;1560;52.746;13.474;2023-05-19T02:50:53;8.00;99.90
3100;DHT22;1560;52.746;13.474;2023-05-19T02:53:22;8.00;99.90
3100;DHT22;1560;52.746;13.474;2023-05-19T02:55:51;8.00;99.90
3100;DHT22;1560;52.746;13.474;2023-05-19T02:58:20;8.00;99.90
3100;DHT22;1560;52.746;13.474;2023-05-19T03:03:28;8.10;99.90
3100;DHT22;1560;52.746;13.474;2023-05-19T03:05:58;8.20;99.90
3100;DHT22;1560;52.746;13.474;2023-05-19T03:08:27;8.20;99.90
3100;DHT22;1560;52.746;13.474;2023-05-19T03:10:58;8.20;99.90
3100;DHT22;1560;52.746;13.474;2023-05-19T03:13:27;8.20;99.90
3100;DHT22;1560;52.746;13.474;2023-05-19T03:15:56;8.20;99.90
3100;DHT22;1560;52.746;13.474;2023-05-19T03:18:26;8.10;99.90
3100;DHT22;1560;52.746;13.474;2023-05-19T03:20:55;8.10;99.90
3100;DHT22;1560;52.746;13.474;2023-05-19T03:23:24;8.10;99.90
3100;DHT22;1560;52.746;13.474;2023-05-19T03:25:55;8.00;99.90
3100;DHT22;1560;52.746;13.474;2023-05-19T03:28:26;8.10;99.90
3100;DHT22;1560;52.746;13.474;2023-05-19T03:30:55;8.00;99.90
3100;DHT22;1560;52.746;13.474;2023-05-19T03:33:24;8.00;99.90
3100;DHT22;1560;52.746;13.474;2023-05-19T03:35:56;7.90;99.90
3100;DHT22;1560;52.746;13.474;2023-05-19T03:38:25;7.90;99.90
3100;DHT22;1560;52.746;13.474;2023-05-19T03:40:54;7.80;99.90
3100;DHT22;1560;52.746;13.474;2023-05-19T03:46:05;7.90;99.90
3100;DHT22;1560;52.746;13.474;2023-05-19T03:48:36;7.90;99.90
3100;DHT22;1560;52.746;13.474;2023-05-19T03:51:05;7.90;99.90
3100;DHT22;1560;52.746;13.474;2023-05-19T03:56:13;7.90;99.90
3100;DHT22;1560;52.746;13.474;2023-05-19T03:58:44;7.90;99.90
3100;DHT22;1560;52.746;13.474;2023-05-19T04:01:15;7.90;99.90
3100;DHT22;1560;52.746;13.474;2023-05-19T04:03:44;7.90;99.90
3100;DHT22;1560;52.746;13.474;2023-05-19T04:06:16;7.90;99.90
3100;DHT22;1560;52.746;13.474;2023-05-19T04:08:48;7.90;99.90
3100;DHT22;1560;52.746;13.474;2023-05-19T04:13:56;7.80;99.90
3100;DHT22;1560;52.746;13.474;2023-05-19T04:16:25;7.90;99.90
3100;DHT22;1560;52.746;13.474;2023-05-19T04:18:54;7.80;99.90
3100;DHT22;1560;52.746;13.474;2023-05-19T04:21:23;7.80;99.90
3100;DHT22;1560;52.746;13.474;2023-05-19T04:26:29;7.80;99.90
3100;DHT22;1560;52.746;13.474;2023-05-19T04:29:01;7.80;99.90
3100;DHT22;1560;52.746;13.474;2023-05-19T04:34:13;7.90;99.90
3100;DHT22;1560;52.746;13.474;2023-05-19T04:36:44;7.90;99.90
3100;DHT22;1560;52.746;13.474;2023-05-19T04:39:14;8.00;99.90
3100;DHT22;1560;52.746;13.474;2023-05-19T04:41:43;8.00;99.90
3100;DHT22;1560;52.746;13.474;2023-05-19T04:44:16;8.10;99.90
3100;DHT22;1560;52.746;13.474;2023-05-19T04:46:46;8.10;99.90
3100;DHT22;1560;52.746;13.474;2023-05-19T04:49:15;8.10;99.90
3100;DHT22;1560;52.746;13.474;2023-05-19T04:51:45;8.10;99.90
3100;DHT22;1560;52.746;13.474;2023-05-19T04:54:16;8.10;99.90
3100;DHT22;1560;52.746;13.474;2023-05-19T04:56:45;8.10;99.90
3100;DHT22;1560;52.746;13.474;2023-05-19T04:59:14;8.10;99.90
3100;DHT22;1560;52.746;13.474;2023-05-19T05:04:21;8.10;99.90
3100;DHT22;1560;52.746;13.474;2023-05-19T05:09:31;8.30;99.90
3100;DHT22;1560;52.746;13.474;2023-05-19T05:12:02;8.30;99.90
3100;DHT22;1560;52.746;13.474;2023-05-19T05:14:35;8.40;99.90
3100;DHT22;1560;52.746;13.474;2023-05-19T05:17:09;8.40;99.90
3100;DHT22;1560;52.746;13.474;2023-05-19T05:22:24;8.50;99.90
3100;DHT22;1560;52.746;13.474;2023-05-19T05:24:54;8.50;99.90
3100;DHT22;1560;52.746;13.474;2023-05-19T05:27:23;8.50;99.90
3100;DHT22;1560;52.746;13.474;2023-05-19T05:29:54;8.60;99.90
3100;DHT22;1560;52.746;13.474;2023-05-19T05:32:23;8.60;99.90
3100;DHT22;1560;52.746;13.474;2023-05-19T05:37:32;8.70;99.90
3100;DHT22;1560;52.746;13.474;2023-05-19T05:40:01;8.80;99.90
3100;DHT22;1560;52.746;13.474;2023-05-19T05:42:31;8.90;99.90
3100;DHT22;1560;52.746;13.474;2023-05-19T05:47:39;9.00;99.90
3100;DHT22;1560;52.746;13.474;2023-05-19T05:50:11;9.10;99.90
3100;DHT22;1560;52.746;13.474;2023-05-19T05:52:41;9.10;99.90
3100;DHT22;1560;52.746;13.474;2023-05-19T05:55:14;9.20;99.90
3100;DHT22;1560;52.746;13.474;2023-05-19T05:57:44;9.20;99.90
3100;DHT22;1560;52.746;13.474;2023-05-19T06:00:16;9.30;99.90
3100;DHT22;1560;52.746;13.474;2023-05-19T06:05:23;9.40;99.90
3100;DHT22;1560;52.746;13.474;2023-05-19T06:10:47;9.50;99.90
3100;DHT22;1560;52.746;13.474;2023-05-19T06:13:16;9.60;99.90
3100;DHT22;1560;52.746;13.474;2023-05-19T06:15:47;9.80;99.90
3100;DHT22;1560;52.746;13.474;2023-05-19T06:18:16;9.90;99.90
3100;DHT22;1560;52.746;13.474;2023-05-19T06:20:46;10.00;99.90
3100;DHT22;1560;52.746;13.474;2023-05-19T06:26:03;10.30;99.90
3100;DHT22;1560;52.746;13.474;2023-05-19T06:28:33;10.40;99.90
3100;DHT22;1560;52.746;13.474;2023-05-19T06:33:43;10.60;99.90
3100;DHT22;1560;52.746;13.474;2023-05-19T06:36:12;10.80;37.60
3100;DHT22;1560;52.746;13.474;2023-05-19T06:41:21;11.00;90.40
3100;DHT22;1560;52.746;13.474;2023-05-19T06:43:52;11.00;89.70
3100;DHT22;1560;52.746;13.474;2023-05-19T06:46:22;11.20;3.10
3100;DHT22;1560;52.746;13.474;2023-05-19T06:51:28;11.30;99.90
3100;DHT22;1560;52.746;13.474;2023-05-19T06:53:59;11.40;99.90
3100;DHT22;1560;52.746;13.474;2023-05-19T06:56:33;11.50;99.90
3100;DHT22;1560;52.746;13.474;2023-05-19T06:59:03;11.60;23.90
3100;DHT22;1560;52.746;13.474;2023-05-19T07:01:35;11.80;1.00
3100;DHT22;1560;52.746;13.474;2023-05-19T07:06:42;12.00;1.00
3100;DHT22;1560;52.746;13.474;2023-05-19T07:09:13;12.00;1.00
3100;DHT22;1560;52.746;13.474;2023-05-19T07:11:42;12.10;1.00
3100;DHT22;1560;52.746;13.474;2023-05-19T07:14:12;12.20;1.00
3100;DHT22;1560;52.746;13.474;2023-05-19T07:16:41;12.20;1.00
3100;DHT22;1560;52.746;13.474;2023-05-19T07:19:10;12.40;1.00
3100;DHT22;1560;52.746;13.474;2023-05-19T07:21:39;12.50;1.00
3100;DHT22;1560;52.746;13.474;2023-05-19T07:24:09;12.60;1.00
3100;DHT22;1560;52.746;13.474;2023-05-19T07:26:39;12.60;1.00
3100;DHT22;1560;52.746;13.474;2023-05-19T07:29:11;12.70;1.00
3100;DHT22;1560;52.746;13.474;2023-05-19T07:31:40;12.90;1.00
3100;DHT22;1560;52.746;13.474;2023-05-19T07:34:09;12.90;1.00
3100;DHT22;1560;52.746;13.474;2023-05-19T07:36:38;13.00;1.00
3100;DHT22;1560;52.746;13.474;2023-05-19T07:39:10;13.10;1.00
3100;DHT22;1560;52.746;13.474;2023-05-19T07:41:39;13.20;1.00
3100;DHT22;1560;52.746;13.474;2023-05-19T07:44:08;13.30;1.00
3100;DHT22;1560;52.746;13.474;2023-05-19T07:46:37;13.40;1.00
3100;DHT22;1560;52.746;13.474;2023-05-19T07:49:06;13.50;1.00
3100;DHT22;1560;52.746;13.474;2023-05-19T07:51:34;13.70;1.00
3100;DHT22;1560;52.746;13.474;2023-05-19T07:54:03;13.90;1.00
3100;DHT22;1560;52.746;13.474;2023-05-19T07:56:32;13.90;1.00
3100;DHT22;1560;52.746;13.474;2023-05-19T08:01:39;14.20;1.00
3100;DHT22;1560;52.746;13.474;2023-05-19T08:04:09;14.30;99.90
3100;DHT22;1560;52.746;13.474;2023-05-19T08:06:38;14.30;1.00
3100;DHT22;1560;52.746;13.474;2023-05-19T08:09:09;14.50;1.00
3100;DHT22;1560;52.746;13.474;2023-05-19T08:11:38;14.60;1.00
3100;DHT22;1560;52.746;13.474;2023-05-19T08:16:44;15.00;14.20
3100;DHT22;1560;52.746;13.474;2023-05-19T08:21:52;15.30;5.60
3100;DHT22;1560;52.746;13.474;2023-05-19T08:24:22;15.40;99.90
3100;DHT22;1560;52.746;13.474;2023-05-19T08:26:53;15.50;99.90
3100;DHT22;1560;52.746;13.474;2023-05-19T08:29:22;15.60;99.90
3100;DHT22;1560;52.746;13.474;2023-05-19T08:31:51;15.80;99.90
3100;DHT22;1560;52.746;13.474;2023-05-19T08:34:20;15.90;99.90
3100;DHT22;1560;52.746;13.474;2023-05-19T08:36:48;15.90;99.90
3100;DHT22;1560;52.746;13.474;2023-05-19T08:39:17;16.00;99.90
3100;DHT22;1560;52.746;13.474;2023-05-19T08:41:48;15.90;99.90
3100;DHT22;1560;52.746;13.474;2023-05-19T08:44:16;16.10;99.90
3100;DHT22;1560;52.746;13.474;2023-05-19T08:46:47;16.30;99.90
3100;DHT22;1560;52.746;13.474;2023-05-19T08:49:22;16.30;99.90
3100;DHT22;1560;52.746;13.474;2023-05-19T08:51:54;16.40;99.90
3100;DHT22;1560;52.746;13.474;2023-05-19T08:54:26;16.60;99.90
3100;DHT22;1560;52.746;13.474;2023-05-19T08:56:55;16.80;99.90
3100;DHT22;1560;52.746;13.474;2023-05-19T08:59:24;16.90;99.90
3100;DHT22;1560;52.746;13.474;2023-05-19T09:04:37;17.00;99.90
3100;DHT22;1560;52.746;13.474;2023-05-19T09:07:06;17.40;99.90
3100;DHT22;1560;52.746;13.474;2023-05-19T09:09:36;17.40;99.90
3100;DHT22;1560;52.746;13.474;2023-05-19T09:12:07;17.20;99.90
3100;DHT22;1560;52.746;13.474;2023-05-19T09:14:37;17.00;99.90
3100;DHT22;1560;52.746;13.474;2023-05-19T09:30:10;16.70;99.90
3100;DHT22;1560;52.746;13.474;2023-05-19T09:32:39;17.00;99.90
3100;DHT22;1560;52.746;13.474;2023-05-19T09:35:08;17.30;99.90
3100;DHT22;1560;52.746;13.474;2023-05-19T09:37:42;17.00;99.90
3100;DHT22;1560;52.746;13.474;2023-05-19T09:42:54;17.00;99.90
3100;DHT22;1560;52.746;13.474;2023-05-19T09:45:25;17.10;99.90
3100;DHT22;1560;52.746;13.474;2023-05-19T09:47:56;17.20;99.90
3100;DHT22;1560;52.746;13.474;2023-05-19T09:50:26;17.50;99.90
3100;DHT22;1560;52.746;13.474;2023-05-19T09:55:36;17.90;99.90
3100;DHT22;1560;52.746;13.474;2023-05-19T09:58:05;17.80;99.90
3100;DHT22;1560;52.746;13.474;2023-05-19T10:00:34;17.70;99.90
3100;DHT22;1560;52.746;13.474;2023-05-19T10:05:45;17.20;99.90
3100;DHT22;1560;52.746;13.474;2023-05-19T10:08:14;17.40;99.90
3100;DHT22;1560;52.746;13.474;2023-05-19T10:13:25;17.10;99.90
3100;DHT22;1560;52.746;13.474;2023-05-19T10:15:54;17.50;99.90
3100;DHT22;1560;52.746;13.474;2023-05-19T10:18:25;17.90;99.90
3100;DHT22;1560;52.746;13.474;2023-05-19T10:20:56;18.00;99.90
3100;DHT22;1560;52.746;13.474;2023-05-19T10:26:05;17.70;99.90
3100;DHT22;1560;52.746;13.474;2023-05-19T10:28:37;17.40;99.90
3100;DHT22;1560;52.746;13.474;2023-05-19T10:31:10;17.30;99.90
3100;DHT22;1560;52.746;13.474;2023-05-19T10:33:46;17.50;99.90
3100;DHT22;1560;52.746;13.474;2023-05-19T10:36:33;17.50;99.90
3100;DHT22;1560;52.746;13.474;2023-05-19T10:41:56;17.90;99.90
3100;DHT22;1560;52.746;13.474;2023-05-19T10:44:34;17.80;99.90
3100;DHT22;1560;52.746;13.474;2023-05-19T10:47:06;17.50;99.90
3100;DHT22;1560;52.746;13.474;2023-05-19T10:49:39;17.80;99.90
3100;DHT22;1560;52.746;13.474;2023-05-19T10:52:20;18.30;99.90
3100;DHT22;1560;52.746;13.474;2023-05-19T10:57:29;18.10;99.90
3100;DHT22;1560;52.746;13.474;2023-05-19T11:00:01;17.90;99.90
3100;DHT22;1560;52.746;13.474;2023-05-19T11:05:18;18.50;99.90
3100;DHT22;1560;52.746;13.474;2023-05-19T11:07:55;18.70;99.90
3100;DHT22;1560;52.746;13.474;2023-05-19T11:10:26;18.70;99.90
3100;DHT22;1560;52.746;13.474;2023-05-19T11:12:56;18.70;99.90
3100;DHT22;1560;52.746;13.474;2023-05-19T11:15:27;18.50;99.90
3100;DHT22;1560;52.746;13.474;2023-05-19T11:20:35;18.30;99.90
3100;DHT22;1560;52.746;13.474;2023-05-19T11:23:08;18.40;99.90
3100;DHT22;1560;52.746;13.474;2023-05-19T11:25:47;18.40;99.90
3100;DHT22;1560;52.746;13.474;2023-05-19T11:28:22;18.40;99.90
3100;DHT22;1560;52.746;13.474;2023-05-19T11:30:56;18.60;99.90
3100;DHT22;1560;52.746;13.474;2023-05-19T11:36:06;18.20;99.90
3100;DHT22;1560;52.746;13.474;2023-05-19T11:38:35;17.90;99.90
3100;DHT22;1560;52.746;13.474;2023-05-19T11:41:04;17.80;99.90
3100;DHT22;1560;52.746;13.474;2023-05-19T11:43:36;17.80;99.90
3100;DHT22;1560;52.746;13.474;2023-05-19T11:46:05;17.80;99.90
3100;DHT22;1560;52.746;13.474;2023-05-19T11:48:34;17.90;99.90
3100;DHT22;1560;52.746;13.474;2023-05-19T11:51:04;17.90;99.90
3100;DHT22;1560;52.746;13.474;2023-05-19T11:53:34;17.60;99.90
3100;DHT22;1560;52.746;13.474;2023-05-19T11:56:05;17.50;99.90
3100;DHT22;1560;52.746;13.474;2023-05-19T11:58:34;17.30;99.90
3100;DHT22;1560;52.746;13.474;2023-05-19T12:01:04;17.40;99.90
3100;DHT22;1560;52.746;13.474;2023-05-19T12:03:33;17.60;99.90
3100;DHT22;1560;52.746;13.474;2023-05-19T12:06:04;18.00;99.90
3100;DHT22;1560;52.746;13.474;2023-05-19T12:08:35;18.00;99.90
3100;DHT22;1560;52.746;13.474;2023-05-19T12:11:05;18.00;99.90
3100;DHT22;1560;52.746;13.474;2023-05-19T12:13:35;18.00;99.90
3100;DHT22;1560;52.746;13.474;2023-05-19T12:16:05;17.90;99.90
3100;DHT22;1560;52.746;13.474;2023-05-19T12:18:37;17.70;99.90
3100;DHT22;1560;52.746;13.474;2023-05-19T12:21:06;17.60;99.90
3100;DHT22;1560;52.746;13.474;2023-05-19T12:23:37;17.80;99.90
3100;DHT22;1560;52.746;13.474;2023-05-19T12:26:08;18.00;99.90
3100;DHT22;1560;52.746;13.474;2023-05-19T12:31:20;17.90;99.90
3100;DHT22;1560;52.746;13.474;2023-05-19T12:33:50;17.90;99.90
3100;DHT22;1560;52.746;13.474;2023-05-19T12:38:59;17.50;99.90
3100;DHT22;1560;52.746;13.474;2023-05-19T12:41:29;17.60;99.90
3100;DHT22;1560;52.746;13.474;2023-05-19T12:43:58;17.80;99.90
3100;DHT22;1560;52.746;13.474;2023-05-19T12:46:27;18.10;99.90
3100;DHT22;1560;52.746;13.474;2023-05-19T12:48:59;18.30;99.90
3100;DHT22;1560;52.746;13.474;2023-05-19T12:51:27;18.30;99.90
3100;DHT22;1560;52.746;13.474;2023-05-19T12:53:56;18.10;99.90
3100;DHT22;1560;52.746;13.474;2023-05-19T12:56:25;18.10;99.90
3100;DHT22;1560;52.746;13.474;2023-05-19T12:58:55;18.10;99.90
3100;DHT22;1560;52.746;13.474;2023-05-19T13:01:28;18.30;99.90
3100;DHT22;1560;52.746;13.474;2023-05-19T13:06:35;18.50;99.90
3100;DHT22;1560;52.746;13.474;2023-05-19T13:09:04;18.40;99.90
3100;DHT22;1560;52.746;13.474;2023-05-19T13:11:36;18.20;99.90
3100;DHT22;1560;52.746;13.474;2023-05-19T13:16:49;18.00;99.90
3100;DHT22;1560;52.746;13.474;2023-05-19T13:19:27;18.00;99.90
3100;DHT22;1560;52.746;13.474;2023-05-19T13:24:40;17.70;99.90
3100;DHT22;1560;52.746;13.474;2023-05-19T13:30:00;18.10;99.90
3100;DHT22;1560;52.746;13.474;2023-05-19T13:32:29;18.20;99.90
3100;DHT22;1560;52.746;13.474;2023-05-19T13:34:59;18.30;99.90
3100;DHT22;1560;52.746;13.474;2023-05-19T13:40:09;18.20;99.90
3100;DHT22;1560;52.746;13.474;2023-05-19T13:42:41;18.40;99.90
3100;DHT22;1560;52.746;13.474;2023-05-19T13:45:10;18.40;99.90
3100;DHT22;1560;52.746;13.474;2023-05-19T13:47:39;18.40;99.90
3100;DHT22;1560;52.746;13.474;2023-05-19T13:50:09;18.30;99.90
3100;DHT22;1560;52.746;13.474;2023-05-19T13:52:46;18.40;99.90
3100;DHT22;1560;52.746;13.474;2023-05-19T13:55:16;18.40;99.90
3100;DHT22;1560;52.746;13.474;2023-05-19T13:57:45;18.30;99.90
3100;DHT22;1560;52.746;13.474;2023-05-19T14:00:18;18.20;99.90
3100;DHT22;1560;52.746;13.474;2023-05-19T14:05:28;18.10;99.90
3100;DHT22;1560;52.746;13.474;2023-05-19T14:08:01;17.90;99.90
3100;DHT22;1560;52.746;13.474;2023-05-19T14:10:32;17.80;99.90
3100;DHT22;1560;52.746;13.474;2023-05-19T14:15:41;17.60;99.90
3100;DHT22;1560;52.746;13.474;2023-05-19T14:18:11;17.60;99.90
3100;DHT22;1560;52.746;13.474;2023-05-19T14:20:39;17.70;99.90
3100;DHT22;1560;52.746;13.474;2023-05-19T14:25:46;17.80;99.90
3100;DHT22;1560;52.746;13.474;2023-05-19T14:28:15;17.90;99.90
3100;DHT22;1560;52.746;13.474;2023-05-19T14:30:44;17.80;99.90
3100;DHT22;1560;52.746;13.474;2023-05-19T14:33:13;17.90;99.90
3100;DHT22;1560;52.746;13.474;2023-05-19T14:35:43;18.00;99.90
3100;DHT22;1560;52.746;13.474;2023-05-19T14:38:12;18.00;99.90
3100;DHT22;1560;52.746;13.474;2023-05-19T14:40:41;18.10;99.90
3100;DHT22;1560;52.746;13.474;2023-05-19T14:43:10;18.10;99.90
3100;DHT22;1560;52.746;13.474;2023-05-19T14:45:43;18.20;99.90
3100;DHT22;1560;52.746;13.474;2023-05-19T14:48:12;18.20;99.90
3100;DHT22;1560;52.746;13.474;2023-05-19T14:50:44;18.20;99.90
3100;DHT22;1560;52.746;13.474;2023-05-19T14:53:17;18.20;99.90
3100;DHT22;1560;52.746;13.474;2023-05-19T14:55:48;18.10;99.90
3100;DHT22;1560;52.746;13.474;2023-05-19T15:01:03;18.10;99.90
3100;DHT22;1560;52.746;13.474;2023-05-19T15:03:33;18.00;99.90
3100;DHT22;1560;52.746;13.474;2023-05-19T15:06:02;17.90;99.90
3100;DHT22;1560;52.746;13.474;2023-05-19T15:08:36;17.90;99.90
3100;DHT22;1560;52.746;13.474;2023-05-19T15:11:07;17.80;99.90
3100;DHT22;1560;52.746;13.474;2023-05-19T15:13:35;17.80;99.90
3100;DHT22;1560;52.746;13.474;2023-05-19T15:16:05;17.90;99.90
3100;DHT22;1560;52.746;13.474;2023-05-19T15:18:36;17.80;99.90
3100;DHT22;1560;52.746;13.474;2023-05-19T15:21:05;17.60;99.90
3100;DHT22;1560;52.746;13.474;2023-05-19T15:23:34;17.60;99.90
3100;DHT22;1560;52.746;13.474;2023-05-19T15:28:46;17.60;99.90
3100;DHT22;1560;52.746;13.474;2023-05-19T15:31:15;17.60;99.90
3100;DHT22;1560;52.746;13.474;2023-05-19T15:33:44;17.60;99.90
3100;DHT22;1560;52.746;13.474;2023-05-19T15:36:20;17.60;99.90
3100;DHT22;1560;52.746;13.474;2023-05-19T15:38:49;17.60;99.90
3100;DHT22;1560;52.746;13.474;2023-05-19T15:41:18;17.40;99.90
3100;DHT22;1560;52.746;13.474;2023-05-19T15:43:48;17.40;99.90
3100;DHT22;1560;52.746;13.474;2023-05-19T15:46:17;17.50;99.90
3100;DHT22;1560;52.746;13.474;2023-05-19T15:48:46;17.60;99.90
3100;DHT22;1560;52.746;13.474;2023-05-19T15:53:52;17.50;99.90
3100;DHT22;1560;52.746;13.474;2023-05-19T15:56:24;17.50;99.90
3100;DHT22;1560;52.746;13.474;2023-05-19T15:58:56;17.50;99.90
3100;DHT22;1560;52.746;13.474;2023-05-19T16:04:02;17.40;99.90
3100;DHT22;1560;52.746;13.474;2023-05-19T16:09:16;17.20;99.90
3100;DHT22;1560;52.746;13.474;2023-05-19T16:11:45;17.30;99.90
3100;DHT22;1560;52.746;13.474;2023-05-19T16:16:53;17.20;99.90
3100;DHT22;1560;52.746;13.474;2023-05-19T16:19:21;17.20;99.90
3100;DHT22;1560;52.746;13.474;2023-05-19T16:21:51;17.20;99.90
3100;DHT22;1560;52.746;13.474;2023-05-19T16:24:20;17.20;99.90
3100;DHT22;1560;52.746;13.474;2023-05-19T16:26:49;17.20;99.90
3100;DHT22;1560;52.746;13.474;2023-05-19T16:29:19;17.20;99.90
3100;DHT22;1560;52.746;13.474;2023-05-19T16:31:48;17.10;99.90
3100;DHT22;1560;52.746;13.474;2023-05-19T16:34:19;17.20;99.90
3100;DHT22;1560;52.746;13.474;2023-05-19T16:36:48;17.10;99.90
3100;DHT22;1560;52.746;13.474;2023-05-19T16:41:56;17.20;99.90
3100;DHT22;1560;52.746;13.474;2023-05-19T16:47:03;17.10;99.90
3100;DHT22;1560;52.746;13.474;2023-05-19T16:49:35;17.10;99.90
3100;DHT22;1560;52.746;13.474;2023-05-19T16:52:06;17.10;99.90
3100;DHT22;1560;52.746;13.474;2023-05-19T16:57:16;17.10;99.90
3100;DHT22;1560;52.746;13.474;2023-05-19T16:59:50;17.00;99.90
3100;DHT22;1560;52.746;13.474;2023-05-19T17:02:19;16.90;99.90
3100;DHT22;1560;52.746;13.474;2023-05-19T17:04:48;16.80;99.90
3100;DHT22;1560;52.746;13.474;2023-05-19T17:07:19;16.80;99.90
3100;DHT22;1560;52.746;13.474;2023-05-19T17:09:48;16.70;99.90
3100;DHT22;1560;52.746;13.474;2023-05-19T17:12:17;16.70;99.90
3100;DHT22;1560;52.746;13.474;2023-05-19T17:14:49;16.70;99.90
3100;DHT22;1560;52.746;13.474;2023-05-19T17:47:40;16.00;99.90
3100;DHT22;1560;52.746;13.474;2023-05-19T18:25:12;16.00;99.90
3100;DHT22;1560;52.746;13.474;2023-05-19T19:56:13;14.40;99.90
3100;DHT22;1560;52.746;13.474;2023-05-19T20:38:23;13.50;99.90
3100;DHT22;1560;52.746;13.474;2023-05-19T20:40:52;13.40;99.90
3100;DHT22;1560;52.746;13.474;2023-05-19T20:43:21;13.40;99.90
3100;DHT22;1560;52.746;13.474;2023-05-19T20:45:52;13.30;99.90
3100;DHT22;1560;52.746;13.474;2023-05-19T20:48:21;13.20;99.90
3100;DHT22;1560;52.746;13.474;2023-05-19T20:50:51;13.20;99.90
3100;DHT22;1560;52.746;13.474;2023-05-19T20:53:20;13.20;99.90
3100;DHT22;1560;52.746;13.474;2023-05-19T20:58:32;13.20;99.90
3100;DHT22;1560;52.746;13.474;2023-05-19T21:01:01;13.10;99.90
3100;DHT22;1560;52.746;13.474;2023-05-19T21:06:11;13.10;99.90
3100;DHT22;1560;52.746;13.474;2023-05-19T21:11:20;13.20;99.90
3100;DHT22;1560;52.746;13.474;2023-05-19T21:13:49;13.20;99.90
3100;DHT22;1560;52.746;13.474;2023-05-19T21:16:18;13.20;99.90
3100;DHT22;1560;52.746;13.474;2023-05-19T21:21:24;13.10;99.90
3100;DHT22;1560;52.746;13.474;2023-05-19T21:23:53;13.10;99.90
3100;DHT22;1560;52.746;13.474;2023-05-19T21:26:23;13.00;99.90
3100;DHT22;1560;52.746;13.474;2023-05-19T21:28:52;13.00;99.90
3100;DHT22;1560;52.746;13.474;2023-05-19T21:31:21;12.90;99.90
3100;DHT22;1560;52.746;13.474;2023-05-19T21:36:33;12.60;99.90
3100;DHT22;1560;52.746;13.474;2023-05-19T21:39:05;12.60;99.90
3100;DHT22;1560;52.746;13.474;2023-05-19T21:41:37;12.50;99.90
3100;DHT22;1560;52.746;13.474;2023-05-19T21:44:06;12.50;99.90
3100;DHT22;1560;52.746;13.474;2023-05-19T21:46:35;12.50;99.90
3100;DHT22;1560;52.746;13.474;2023-05-19T21:49:04;12.50;99.90
3100;DHT22;1560;52.746;13.474;2023-05-19T21:54:11;12.30;99.90
3100;DHT22;1560;52.746;13.474;2023-05-19T21:56:41;12.30;99.90
3100;DHT22;1560;52.746;13.474;2023-05-19T21:59:09;12.30;99.90
3100;DHT22;1560;52.746;13.474;2023-05-19T22:04:16;12.30;99.90
3100;DHT22;1560;52.746;13.474;2023-05-19T22:06:49;12.30;99.90
3100;DHT22;1560;52.746;13.474;2023-05-19T22:09:18;12.10;99.90
3100;DHT22;1560;52.746;13.474;2023-05-19T22:14:28;12.10;99.90
3100;DHT22;1560;52.746;13.474;2023-05-19T22:16:57;12.10;99.90
3100;DHT22;1560;52.746;13.474;2023-05-19T22:22:05;12.10;99.90
3100;DHT22;1560;52.746;13.474;2023-05-19T22:24:35;12.10;99.90
3100;DHT22;1560;52.746;13.474;2023-05-19T22:27:06;12.00;99.90
3100;DHT22;1560;52.746;13.474;2023-05-19T22:32:15;11.90;99.90
3100;DHT22;1560;52.746;13.474;2023-05-19T22:34:49;11.60;99.90
3100;DHT22;1560;52.746;13.474;2023-05-19T22:40:06;11.40;99.90
3100;DHT22;1560;52.746;13.474;2023-05-19T22:42:37;11.30;99.90
3100;DHT22;1560;52.746;13.474;2023-05-19T22:45:09;11.20;99.90
3100;DHT22;1560;52.746;13.474;2023-05-19T22:47:40;11.20;99.90
3100;DHT22;1560;52.746;13.474;2023-05-19T22:50:10;11.20;99.90
3100;DHT22;1560;52.746;13.474;2023-05-19T22:55:22;11.10;99.90
3100;DHT22;1560;52.746;13.474;2023-05-19T22:57:53;11.10;99.90
3100;DHT22;1560;52.746;13.474;2023-05-19T23:00:22;11.10;99.90
3100;DHT22;1560;52.746;13.474;2023-05-19T23:02:51;11.10;99.90